createdAt,value
2023-02-15T05:02:34.970Z,98.32
2023-02-15T05:05:01.556Z,98.35
2023-02-15T05:07:28.108Z,98.36
2023-02-15T05:09:54.670Z,98.37
2023-02-15T05:12:21.614Z,98.40
2023-02-15T05:14:48.146Z,98.44
2023-02-15T05:17:14.709Z,98.29
2023-02-15T05:19:41.196Z,98.35
2023-02-15T05:22:07.752Z,98.41
2023-02-15T05:24:52.834Z,98.40
2023-02-15T05:30:22.256Z,98.41
2023-02-15T05:32:50.431Z,98.41
2023-02-15T05:35:18.974Z,98.37
2023-02-15T05:37:46.082Z,98.43
2023-02-15T05:40:12.842Z,98.40
2023-02-15T05:42:39.389Z,98.47
2023-02-15T05:45:06.723Z,98.39
2023-02-15T05:47:33.294Z,98.35
2023-02-15T05:49:59.880Z,98.32
2023-02-15T05:52:27.472Z,98.33
2023-02-15T05:54:55.104Z,98.31
2023-02-15T05:57:21.676Z,98.24
2023-02-15T05:59:48.409Z,98.22
2023-02-15T06:02:15.582Z,98.16
2023-02-15T06:04:45.908Z,98.17
2023-02-15T06:07:28.060Z,98.13
2023-02-15T06:09:54.626Z,98.23
2023-02-15T06:12:21.262Z,98.14
2023-02-15T06:14:48.604Z,98.05
2023-02-15T06:17:15.264Z,98.05
2023-02-15T06:19:41.813Z,97.94
2023-02-15T06:22:08.435Z,97.97
2023-02-15T06:24:35.033Z,98.00
2023-02-15T06:27:01.754Z,97.86
2023-02-15T06:29:28.310Z,97.89
2023-02-15T06:31:54.879Z,97.78
2023-02-15T06:34:21.492Z,97.81
2023-02-15T06:36:48.293Z,97.81
2023-02-15T06:39:14.890Z,97.72
2023-02-15T06:41:41.448Z,97.66
2023-02-15T06:44:08.108Z,97.69
2023-02-15T06:46:34.719Z,97.64
2023-02-15T06:49:02.590Z,97.61
2023-02-15T06:51:29.170Z,97.57
2023-02-15T06:53:55.749Z,97.52
2023-02-15T06:56:22.303Z,97.42
2023-02-15T06:58:50.474Z,97.31
2023-02-15T07:01:17.487Z,97.16
2023-02-15T07:03:44.147Z,97.21
2023-02-15T07:06:11.739Z,96.96
2023-02-15T07:08:40.218Z,97.01
2023-02-15T07:11:26.025Z,96.94
2023-02-15T07:13:53.522Z,96.80
2023-02-15T07:16:20.613Z,96.60
2023-02-15T07:18:48.013Z,96.64
2023-02-15T07:21:14.654Z,96.40
2023-02-15T07:23:41.437Z,96.28
2023-02-15T07:26:08.530Z,96.20
2023-02-15T07:28:36.490Z,96.14
2023-02-15T07:31:04.940Z,96.00
2023-02-15T07:33:32.864Z,96.04
2023-02-15T07:36:03.105Z,95.85
2023-02-15T07:38:39.189Z,95.66
2023-02-15T07:41:08.232Z,95.42
2023-02-15T07:43:41.917Z,95.27
2023-02-15T07:46:12.984Z,94.93
2023-02-15T07:48:41.106Z,94.22
2023-02-15T07:51:09.824Z,93.94
2023-02-15T07:53:37.461Z,93.44
2023-02-15T07:56:07.240Z,92.75
2023-02-15T07:58:53.421Z,92.55
2023-02-15T08:01:24.463Z,92.05
2023-02-15T08:03:51.402Z,91.36
2023-02-15T08:06:18.930Z,90.33
2023-02-15T08:08:45.605Z,89.65
2023-02-15T08:11:40.281Z,88.39
2023-02-15T08:14:12.762Z,86.72
2023-02-15T08:16:41.601Z,85.33
2023-02-15T08:19:14.124Z,84.75
2023-02-15T08:21:43.711Z,83.61
2023-02-15T08:24:11.868Z,83.65
2023-02-15T08:26:41.889Z,82.86
2023-02-15T08:29:09.908Z,82.55
2023-02-15T08:31:38.490Z,81.92
2023-02-15T08:34:05.728Z,82.23
2023-02-15T08:36:33.209Z,83.02
2023-02-15T08:39:02.403Z,82.65
2023-02-15T08:41:31.952Z,83.32
2023-02-15T08:44:01.087Z,83.72
2023-02-15T08:46:30.315Z,83.68
2023-02-15T08:48:57.499Z,81.95
2023-02-15T08:51:29.787Z,83.23
2023-02-15T08:53:59.315Z,82.44
2023-02-15T08:56:28.586Z,80.51
2023-02-15T08:58:55.609Z,80.08
2023-02-15T09:01:26.611Z,79.58
2023-02-15T09:04:00.626Z,79.10
2023-02-15T09:06:27.964Z,79.42
2023-02-15T09:08:55.993Z,79.19
2023-02-15T09:11:26.173Z,77.69
2023-02-15T09:13:55.234Z,76.25
2023-02-15T09:16:24.349Z,76.13
2023-02-15T09:18:52.200Z,75.69
2023-02-15T09:21:22.896Z,74.84
2023-02-15T09:23:52.105Z,73.75
2023-02-15T09:26:21.004Z,73.52
2023-02-15T09:28:49.438Z,72.13
2023-02-15T09:31:22.425Z,72.23
2023-02-15T09:33:49.928Z,70.83
2023-02-15T09:36:19.807Z,68.42
2023-02-15T09:38:47.547Z,67.43
2023-02-15T09:41:36.013Z,66.31
2023-02-15T09:44:37.055Z,68.32
2023-02-15T09:47:06.421Z,68.90
2023-02-15T09:49:43.665Z,67.26
2023-02-15T09:52:25.537Z,68.34
2023-02-15T09:55:13.545Z,67.28
2023-02-15T09:57:52.514Z,67.64
2023-02-15T10:00:42.813Z,66.20
2023-02-15T10:03:43.225Z,65.73
2023-02-15T10:06:30.355Z,66.58
2023-02-15T10:09:43.244Z,64.47
2023-02-15T10:12:43.721Z,65.29
2023-02-15T10:15:40.703Z,63.98
2023-02-15T10:18:15.603Z,62.59
2023-02-15T10:21:05.197Z,61.56
2023-02-15T10:23:53.585Z,61.75
2023-02-15T10:26:23.980Z,61.34
2023-02-15T10:28:50.590Z,62.42
2023-02-15T10:31:49.240Z,60.70
2023-02-15T10:34:18.492Z,60.01
2023-02-15T10:36:53.493Z,60.15
2023-02-15T10:39:40.755Z,61.14
2023-02-15T10:42:25.508Z,62.28
2023-02-15T10:45:33.730Z,61.45
2023-02-15T10:48:43.665Z,62.73
2023-02-15T10:51:20.492Z,62.41
2023-02-15T10:54:06.802Z,61.78
2023-02-15T10:56:40.394Z,62.63
2023-02-15T10:59:13.622Z,61.98
2023-02-15T11:01:43.519Z,61.46
2023-02-15T11:04:38.692Z,60.27
2023-02-15T11:07:12.688Z,59.97
2023-02-15T11:09:43.855Z,58.71
2023-02-15T11:12:21.380Z,59.16
2023-02-15T11:15:19.557Z,57.27
2023-02-15T11:17:59.995Z,57.73
2023-02-15T11:20:29.522Z,58.12
2023-02-15T11:22:56.155Z,56.81
2023-02-15T11:25:31.618Z,56.49
2023-02-15T11:27:59.333Z,57.56
2023-02-15T11:30:37.697Z,57.85
2023-02-15T11:33:07.652Z,57.53
2023-02-15T11:35:50.132Z,56.72
2023-02-15T11:38:30.853Z,56.93
2023-02-15T11:41:06.552Z,55.45
2023-02-15T11:43:42.997Z,54.83
2023-02-15T11:46:13.503Z,54.35
2023-02-15T11:48:40.712Z,54.93
2023-02-15T11:51:14.732Z,53.40
2023-02-15T11:53:41.465Z,53.20
2023-02-15T11:56:17.305Z,53.16
2023-02-15T11:58:49.767Z,53.06
2023-02-15T12:01:43.802Z,51.74
2023-02-15T12:04:23.715Z,49.69
2023-02-15T12:07:02.323Z,49.65
2023-02-15T12:09:35.723Z,49.44
2023-02-15T12:12:28.082Z,47.97
2023-02-15T12:14:56.842Z,48.41
2023-02-15T12:17:27.390Z,48.81
2023-02-15T12:19:57.863Z,48.42
2023-02-15T12:25:48.887Z,47.47
2023-02-15T12:28:33.613Z,47.12
2023-02-15T12:31:03.238Z,46.48
2023-02-15T12:33:36.943Z,46.76
2023-02-15T12:36:25.034Z,48.15
2023-02-15T12:39:05.286Z,48.30
2023-02-15T12:41:31.896Z,49.74
2023-02-15T12:44:19.644Z,51.38
2023-02-15T12:47:04.885Z,50.13
2023-02-15T12:49:38.919Z,49.71
2023-02-15T12:52:30.245Z,48.71
2023-02-15T12:55:22.958Z,48.46
2023-02-15T12:57:51.509Z,50.51
2023-02-15T13:00:21.717Z,51.29
2023-02-15T13:02:51.904Z,53.39
2023-02-15T13:05:29.156Z,53.27
2023-02-15T13:08:01.112Z,53.95
2023-02-15T13:10:32.420Z,54.06
2023-02-15T13:12:59.637Z,54.26
2023-02-15T13:15:54.632Z,52.28
2023-02-15T13:18:34.773Z,51.48
2023-02-15T13:21:13.448Z,50.74
2023-02-15T13:23:46.980Z,52.16
2023-02-15T13:26:19.641Z,53.49
2023-02-15T13:28:51.090Z,55.16
2023-02-15T13:31:23.982Z,55.68
2023-02-15T13:33:58.081Z,56.59
2023-02-15T13:36:34.820Z,57.41
2023-02-15T13:39:15.792Z,57.36
2023-02-15T13:41:51.531Z,57.37
2023-02-15T13:44:18.001Z,58.72
2023-02-15T13:47:21.861Z,58.44
2023-02-15T13:50:27.965Z,58.75
2023-02-15T13:53:21.430Z,59.29
2023-02-15T13:56:03.237Z,60.06
2023-02-15T13:58:32.900Z,59.52
2023-02-15T14:01:11.518Z,60.56
2023-02-15T14:03:53.387Z,60.21
2023-02-15T14:06:48.377Z,60.20
2023-02-15T14:09:30.204Z,60.90
2023-02-15T14:12:17.712Z,60.92
2023-02-15T14:15:14.577Z,61.09
2023-02-15T14:17:56.073Z,61.39
2023-02-15T14:20:33.350Z,61.73
2023-02-15T14:23:24.876Z,62.45
2023-02-15T14:26:27.495Z,62.24
2023-02-15T14:29:09.307Z,62.69
2023-02-15T14:31:42.081Z,63.32
2023-02-15T14:34:34.706Z,64.04
2023-02-15T14:37:02.747Z,64.46
2023-02-15T14:39:50.775Z,64.34
2023-02-15T14:42:57.116Z,64.93
2023-02-15T14:45:39.968Z,64.80
2023-02-15T14:48:25.146Z,64.59
2023-02-15T14:50:51.821Z,64.63
2023-02-15T14:53:27.729Z,64.84
2023-02-15T14:56:22.337Z,64.59
2023-02-15T14:58:53.155Z,64.73
2023-02-15T15:01:29.498Z,64.87
2023-02-15T15:04:00.270Z,64.79
2023-02-15T15:06:35.380Z,65.39
2023-02-15T15:09:10.956Z,65.68
2023-02-15T15:11:44.306Z,66.78
2023-02-15T15:14:32.332Z,67.16
2023-02-15T15:17:03.547Z,67.08
2023-02-15T15:19:52.740Z,67.47
2023-02-15T15:22:26.986Z,67.49
2023-02-15T15:25:01.119Z,67.81
2023-02-15T15:27:48.685Z,68.41
2023-02-15T15:30:15.270Z,68.69
2023-02-15T15:32:47.655Z,68.90
2023-02-15T15:35:32.820Z,69.14
2023-02-15T15:38:20.147Z,69.64
2023-02-15T15:41:16.783Z,70.44
2023-02-15T15:44:01.953Z,70.75
2023-02-15T15:46:55.815Z,70.74
2023-02-15T15:49:25.613Z,70.62
2023-02-15T15:51:52.638Z,71.37
2023-02-15T15:54:25.077Z,71.83
2023-02-15T15:56:59.068Z,71.19
2023-02-15T15:59:29.070Z,71.50
2023-02-15T16:01:56.205Z,71.84
2023-02-15T16:04:32.391Z,71.93
2023-02-15T16:07:14.451Z,72.26
2023-02-15T16:09:41.030Z,73.07
2023-02-15T16:12:16.754Z,73.37
2023-02-15T16:14:45.435Z,73.69
2023-02-15T16:17:20.604Z,73.99
2023-02-15T16:19:47.783Z,74.33
2023-02-15T16:22:22.424Z,75.15
2023-02-15T16:24:48.954Z,75.70
2023-02-15T16:27:29.685Z,76.13
2023-02-15T16:29:56.343Z,76.65
2023-02-15T16:32:25.781Z,76.99
2023-02-15T16:34:56.992Z,77.42
2023-02-15T16:37:28.081Z,77.35
2023-02-15T16:39:56.383Z,77.81
2023-02-15T16:42:23.619Z,78.08
2023-02-15T16:45:06.877Z,78.12
2023-02-15T16:47:36.658Z,78.15
2023-02-15T16:50:05.042Z,77.73
2023-02-15T16:52:32.049Z,78.20
2023-02-15T16:55:01.448Z,78.36
2023-02-15T16:57:37.684Z,78.83
2023-02-15T17:00:18.832Z,78.84
2023-02-15T17:02:58.761Z,79.01
2023-02-15T17:05:41.153Z,79.02
2023-02-15T17:08:31.269Z,79.23
2023-02-15T17:11:00.818Z,79.09
2023-02-15T17:13:28.457Z,79.39
2023-02-15T17:16:01.774Z,79.35
2023-02-15T17:18:34.878Z,79.69
2023-02-15T17:21:19.270Z,79.06
2023-02-15T17:23:51.741Z,79.24
2023-02-15T17:26:34.829Z,79.28
2023-02-15T17:29:27.061Z,79.50
2023-02-15T17:31:58.613Z,79.43
2023-02-15T17:35:04.205Z,79.58
2023-02-15T17:37:36.609Z,79.61
2023-02-15T17:40:24.446Z,79.68
2023-02-15T17:42:51.233Z,79.79
2023-02-15T17:45:18.216Z,79.90
2023-02-15T17:47:46.886Z,79.97
2023-02-15T17:50:26.277Z,79.60
2023-02-15T17:52:54.667Z,79.66
2023-02-15T17:55:41.424Z,79.75
2023-02-15T17:58:11.102Z,79.86
2023-02-15T18:01:03.084Z,79.61
2023-02-15T18:03:58.423Z,79.52
2023-02-15T18:06:43.780Z,79.69
2023-02-15T18:09:33.678Z,79.73
2023-02-15T18:12:00.765Z,79.76
2023-02-15T18:14:27.433Z,79.93
2023-02-15T18:16:55.051Z,79.87
2023-02-15T18:19:25.383Z,79.98
2023-02-15T18:21:53.167Z,79.66
2023-02-15T18:24:24.286Z,79.27
2023-02-15T18:26:52.147Z,79.11
2023-02-15T18:29:18.739Z,79.34
2023-02-15T18:31:48.048Z,79.43
2023-02-15T18:34:35.075Z,79.61
2023-02-15T18:37:05.541Z,79.73
2023-02-15T18:39:40.802Z,79.94
2023-02-15T18:42:19.578Z,79.87
2023-02-15T18:44:46.170Z,79.91
2023-02-15T18:47:12.708Z,80.25
2023-02-15T18:49:39.219Z,80.14
2023-02-15T18:52:06.100Z,79.85
2023-02-15T18:54:32.641Z,80.21
2023-02-15T18:57:01.494Z,80.11
2023-02-15T18:59:30.461Z,80.24
2023-02-15T19:01:57.979Z,80.24
2023-02-15T19:04:25.866Z,79.97
2023-02-15T19:06:52.924Z,80.27
2023-02-15T19:09:22.399Z,80.72
2023-02-15T19:11:53.266Z,80.74
2023-02-15T19:14:28.537Z,80.90
2023-02-15T19:16:56.522Z,81.03
2023-02-15T19:19:23.444Z,81.33
2023-02-15T19:21:51.047Z,81.45
2023-02-15T19:24:24.627Z,81.56
2023-02-15T19:26:52.156Z,81.48
2023-02-15T19:29:26.257Z,81.79
2023-02-15T19:31:53.017Z,81.64
2023-02-15T19:34:19.591Z,82.00
2023-02-15T19:36:48.779Z,81.94
2023-02-15T19:39:38.439Z,82.28
2023-02-15T19:42:05.542Z,82.19
2023-02-15T19:44:32.075Z,82.82
2023-02-15T19:46:58.572Z,82.85
2023-02-15T19:49:25.096Z,83.09
2023-02-15T19:51:51.633Z,83.00
2023-02-15T19:54:31.585Z,83.05
2023-02-15T19:56:58.280Z,82.53
2023-02-15T19:59:30.900Z,82.56
2023-02-15T20:01:57.904Z,82.77
2023-02-15T20:04:25.850Z,82.94
2023-02-15T20:06:55.768Z,83.07
2023-02-15T20:09:25.740Z,82.74
2023-02-15T20:11:53.433Z,83.00
2023-02-15T20:14:20.860Z,83.30
2023-02-15T20:16:47.979Z,83.40
2023-02-15T20:19:14.822Z,83.23
2023-02-15T20:21:43.876Z,82.98
2023-02-15T20:24:16.089Z,83.22
2023-02-15T20:26:43.031Z,83.16
2023-02-15T20:29:18.568Z,83.31
2023-02-15T20:31:45.490Z,83.56
2023-02-15T20:34:12.152Z,83.63
2023-02-15T20:36:39.656Z,83.45
2023-02-15T20:39:16.520Z,83.40
2023-02-15T20:41:47.830Z,83.56
2023-02-15T20:44:22.220Z,83.60
2023-02-15T20:46:51.136Z,83.58
2023-02-15T20:49:17.734Z,83.95
2023-02-15T20:51:44.505Z,84.21
2023-02-15T20:54:19.908Z,84.05
2023-02-15T20:56:47.412Z,84.03
2023-02-15T20:59:24.730Z,84.09
2023-02-15T21:01:54.424Z,84.26
2023-02-15T21:04:26.495Z,84.38
2023-02-15T21:06:53.043Z,84.42
2023-02-15T21:09:19.591Z,84.80
2023-02-15T21:11:56.304Z,84.64
2023-02-15T21:14:25.706Z,84.81
2023-02-15T21:16:52.775Z,85.01
2023-02-15T21:19:21.908Z,85.05
2023-02-15T21:21:51.479Z,85.19
2023-02-15T21:24:24.543Z,84.88
2023-02-15T21:26:51.734Z,84.96
2023-02-15T21:29:20.201Z,84.85
2023-02-15T21:31:47.894Z,85.11
2023-02-15T21:34:15.500Z,85.14
2023-02-15T21:36:42.897Z,85.22
2023-02-15T21:39:20.830Z,84.85
2023-02-15T21:42:07.825Z,85.35
2023-02-15T21:44:53.017Z,85.62
2023-02-15T21:47:37.967Z,85.67
2023-02-15T21:50:29.284Z,85.68
2023-02-15T21:52:56.643Z,85.80
2023-02-15T21:55:23.224Z,85.45
2023-02-15T21:57:49.834Z,85.51
2023-02-15T22:00:22.194Z,85.93
2023-02-15T22:02:52.563Z,85.95
2023-02-15T22:05:22.231Z,85.62
2023-02-15T22:07:49.082Z,85.74
2023-02-15T22:10:16.022Z,85.69
2023-02-15T22:12:43.491Z,85.63
2023-02-15T22:15:21.795Z,85.67
2023-02-15T22:17:49.381Z,86.04
2023-02-15T22:20:19.572Z,86.32
2023-02-15T22:22:50.183Z,86.28
2023-02-15T22:25:22.134Z,85.56
2023-02-15T22:27:50.206Z,85.81
2023-02-15T22:30:25.300Z,85.94
2023-02-15T22:32:53.481Z,86.10
2023-02-15T22:35:34.729Z,86.00
2023-02-15T22:38:01.540Z,86.32
2023-02-15T22:40:32.558Z,86.12
2023-02-15T22:43:04.930Z,86.24
2023-02-15T22:45:33.564Z,86.20
2023-02-15T22:48:02.137Z,86.12
2023-02-15T22:50:32.173Z,86.53
2023-02-15T22:53:03.431Z,86.77
2023-02-15T22:55:36.183Z,86.65
2023-02-15T22:58:03.596Z,86.69
